sensor_id;sensor_type;location;lat;lon;timestamp;temperature;humidity
10245;DHT22;5167;52.164;10.530;2023-02-11T00:02:01;6.10;23.10
10245;DHT22;5167;52.164;10.530;2023-02-11T00:04:29;6.10;23.70
10245;DHT22;5167;52.164;10.530;2023-02-11T00:06:55;6.00;24.50
10245;DHT22;5167;52.164;10.530;2023-02-11T00:09:20;6.00;23.90
10245;DHT22;5167;52.164;10.530;2023-02-11T00:11:46;6.00;24.50
10245;DHT22;5167;52.164;10.530;2023-02-11T00:14:11;6.20;24.80
10245;DHT22;5167;52.164;10.530;2023-02-11T00:16:37;6.10;24.40
10245;DHT22;5167;52.164;10.530;2023-02-11T00:19:03;6.10;24.70
10245;DHT22;5167;52.164;10.530;2023-02-11T00:21:31;6.20;25.00
10245;DHT22;5167;52.164;10.530;2023-02-11T00:23:57;6.20;24.70
10245;DHT22;5167;52.164;10.530;2023-02-11T00:26:27;6.20;25.00
10245;DHT22;5167;52.164;10.530;2023-02-11T00:28:53;6.20;25.10
10245;DHT22;5167;52.164;10.530;2023-02-11T00:31:20;6.30;25.30
10245;DHT22;5167;52.164;10.530;2023-02-11T00:33:46;6.30;25.20
10245;DHT22;5167;52.164;10.530;2023-02-11T00:36:18;6.30;26.00
10245;DHT22;5167;52.164;10.530;2023-02-11T00:38:45;6.30;25.60
10245;DHT22;5167;52.164;10.530;2023-02-11T00:41:11;6.30;26.00
10245;DHT22;5167;52.164;10.530;2023-02-11T00:43:38;6.30;26.20
10245;DHT22;5167;52.164;10.530;2023-02-11T00:46:04;6.30;26.70
10245;DHT22;5167;52.164;10.530;2023-02-11T00:48:30;6.30;26.60
10245;DHT22;5167;52.164;10.530;2023-02-11T00:50:56;6.30;26.80
10245;DHT22;5167;52.164;10.530;2023-02-11T00:53:21;6.30;27.40
10245;DHT22;5167;52.164;10.530;2023-02-11T00:55:47;6.30;27.40
10245;DHT22;5167;52.164;10.530;2023-02-11T00:58:13;6.30;27.20
10245;DHT22;5167;52.164;10.530;2023-02-11T01:00:38;6.40;26.80
10245;DHT22;5167;52.164;10.530;2023-02-11T01:03:04;6.40;27.10
10245;DHT22;5167;52.164;10.530;2023-02-11T01:05:30;6.50;27.20
10245;DHT22;5167;52.164;10.530;2023-02-11T01:07:55;6.60;26.80
10245;DHT22;5167;52.164;10.530;2023-02-11T01:10:21;6.60;26.70
10245;DHT22;5167;52.164;10.530;2023-02-11T01:12:47;6.70;26.90
10245;DHT22;5167;52.164;10.530;2023-02-11T01:15:14;6.70;26.30
10245;DHT22;5167;52.164;10.530;2023-02-11T01:17:40;6.70;26.50
10245;DHT22;5167;52.164;10.530;2023-02-11T01:20:07;6.70;26.70
10245;DHT22;5167;52.164;10.530;2023-02-11T01:22:35;6.70;26.90
10245;DHT22;5167;52.164;10.530;2023-02-11T01:25:04;6.70;27.00
10245;DHT22;5167;52.164;10.530;2023-02-11T01:27:30;6.80;26.80
10245;DHT22;5167;52.164;10.530;2023-02-11T01:29:56;6.80;27.50
10245;DHT22;5167;52.164;10.530;2023-02-11T01:32:21;6.70;27.50
10245;DHT22;5167;52.164;10.530;2023-02-11T01:34:47;6.90;27.90
10245;DHT22;5167;52.164;10.530;2023-02-11T01:37:12;6.80;28.50
10245;DHT22;5167;52.164;10.530;2023-02-11T01:39:38;6.80;28.10
10245;DHT22;5167;52.164;10.530;2023-02-11T01:42:04;6.80;28.30
10245;DHT22;5167;52.164;10.530;2023-02-11T01:46:57;6.80;29.90
10245;DHT22;5167;52.164;10.530;2023-02-11T01:49:35;6.80;30.20
10245;DHT22;5167;52.164;10.530;2023-02-11T01:52:06;6.80;30.20
10245;DHT22;5167;52.164;10.530;2023-02-11T01:54:37;6.80;30.80
10245;DHT22;5167;52.164;10.530;2023-02-11T01:57:24;6.80;30.70
10245;DHT22;5167;52.164;10.530;2023-02-11T02:00:17;6.90;31.00
10245;DHT22;5167;52.164;10.530;2023-02-11T02:03:07;6.90;31.10
10245;DHT22;5167;52.164;10.530;2023-02-11T02:11:01;7.00;32.50
10245;DHT22;5167;52.164;10.530;2023-02-11T02:13:29;7.10;33.30
10245;DHT22;5167;52.164;10.530;2023-02-11T02:16:05;7.10;33.10
10245;DHT22;5167;52.164;10.530;2023-02-11T02:35:14;7.30;36.50
10245;DHT22;5167;52.164;10.530;2023-02-11T02:40:24;7.40;36.00
10245;DHT22;5167;52.164;10.530;2023-02-11T02:42:51;7.30;36.20
10245;DHT22;5167;52.164;10.530;2023-02-11T02:45:18;7.30;36.20
10245;DHT22;5167;52.164;10.530;2023-02-11T02:47:44;7.40;36.80
10245;DHT22;5167;52.164;10.530;2023-02-11T02:50:11;7.40;36.40
10245;DHT22;5167;52.164;10.530;2023-02-11T02:55:50;7.40;38.50
10245;DHT22;5167;52.164;10.530;2023-02-11T02:58:36;7.50;39.10
10245;DHT22;5167;52.164;10.530;2023-02-11T03:01:38;7.50;39.70
10245;DHT22;5167;52.164;10.530;2023-02-11T03:04:32;7.50;39.70
10245;DHT22;5167;52.164;10.530;2023-02-11T03:07:30;7.60;40.20
10245;DHT22;5167;52.164;10.530;2023-02-11T03:10:01;7.70;39.90
10245;DHT22;5167;52.164;10.530;2023-02-11T03:12:32;7.70;40.10
10245;DHT22;5167;52.164;10.530;2023-02-11T03:15:00;7.80;40.40
10245;DHT22;5167;52.164;10.530;2023-02-11T03:17:28;7.80;40.40
10245;DHT22;5167;52.164;10.530;2023-02-11T03:19:55;7.80;41.30
10245;DHT22;5167;52.164;10.530;2023-02-11T03:22:25;7.80;41.00
10245;DHT22;5167;52.164;10.530;2023-02-11T03:24:52;7.80;41.00
10245;DHT22;5167;52.164;10.530;2023-02-11T03:28:14;7.90;40.90
10245;DHT22;5167;52.164;10.530;2023-02-11T03:30:31;7.80;41.70
10245;DHT22;5167;52.164;10.530;2023-02-11T03:33:07;7.90;41.70
10245;DHT22;5167;52.164;10.530;2023-02-11T03:35:50;7.80;41.80
10245;DHT22;5167;52.164;10.530;2023-02-11T03:38:22;7.90;41.90
10245;DHT22;5167;52.164;10.530;2023-02-11T03:40:50;7.90;41.50
10245;DHT22;5167;52.164;10.530;2023-02-11T03:43:36;7.90;41.70
10245;DHT22;5167;52.164;10.530;2023-02-11T03:46:05;7.90;41.40
10245;DHT22;5167;52.164;10.530;2023-02-11T03:48:37;7.90;41.60
10245;DHT22;5167;52.164;10.530;2023-02-11T03:51:07;8.00;41.80
10245;DHT22;5167;52.164;10.530;2023-02-11T03:53:34;8.00;41.90
10245;DHT22;5167;52.164;10.530;2023-02-11T03:56:04;8.00;42.20
10245;DHT22;5167;52.164;10.530;2023-02-11T03:58:32;7.90;42.80
10245;DHT22;5167;52.164;10.530;2023-02-11T04:00:57;8.00;43.30
10245;DHT22;5167;52.164;10.530;2023-02-11T04:03:23;7.90;43.30
10245;DHT22;5167;52.164;10.530;2023-02-11T04:05:48;7.90;43.90
10245;DHT22;5167;52.164;10.530;2023-02-11T04:08:14;7.90;44.60
10245;DHT22;5167;52.164;10.530;2023-02-11T04:10:40;8.00;43.60
10245;DHT22;5167;52.164;10.530;2023-02-11T04:13:05;8.10;43.70
10245;DHT22;5167;52.164;10.530;2023-02-11T04:15:31;8.00;43.80
10245;DHT22;5167;52.164;10.530;2023-02-11T04:17:57;8.00;44.60
10245;DHT22;5167;52.164;10.530;2023-02-11T04:20:22;8.00;45.00
10245;DHT22;5167;52.164;10.530;2023-02-11T04:22:48;8.10;44.90
10245;DHT22;5167;52.164;10.530;2023-02-11T04:25:14;8.00;44.30
10245;DHT22;5167;52.164;10.530;2023-02-11T04:27:40;8.20;44.60
10245;DHT22;5167;52.164;10.530;2023-02-11T04:30:06;8.30;44.70
10245;DHT22;5167;52.164;10.530;2023-02-11T04:32:32;8.10;44.60
10245;DHT22;5167;52.164;10.530;2023-02-11T04:34:58;8.20;45.40
10245;DHT22;5167;52.164;10.530;2023-02-11T04:37:23;8.10;46.80
10245;DHT22;5167;52.164;10.530;2023-02-11T04:39:49;8.00;48.10
10245;DHT22;5167;52.164;10.530;2023-02-11T04:42:14;8.20;48.90
10245;DHT22;5167;52.164;10.530;2023-02-11T04:44:40;8.00;49.00
10245;DHT22;5167;52.164;10.530;2023-02-11T04:47:05;8.00;50.70
10245;DHT22;5167;52.164;10.530;2023-02-11T04:49:31;8.10;50.00
10245;DHT22;5167;52.164;10.530;2023-02-11T04:51:57;8.00;51.70
10245;DHT22;5167;52.164;10.530;2023-02-11T04:54:22;8.10;53.00
10245;DHT22;5167;52.164;10.530;2023-02-11T04:56:48;8.00;53.90
10245;DHT22;5167;52.164;10.530;2023-02-11T04:59:14;7.90;54.70
10245;DHT22;5167;52.164;10.530;2023-02-11T05:01:40;7.90;56.60
10245;DHT22;5167;52.164;10.530;2023-02-11T05:04:05;7.90;57.80
10245;DHT22;5167;52.164;10.530;2023-02-11T05:06:31;8.00;59.40
10245;DHT22;5167;52.164;10.530;2023-02-11T05:08:57;7.90;61.30
10245;DHT22;5167;52.164;10.530;2023-02-11T05:11:24;7.80;61.70
10245;DHT22;5167;52.164;10.530;2023-02-11T05:13:50;7.90;63.20
10245;DHT22;5167;52.164;10.530;2023-02-11T05:16:16;7.90;63.60
10245;DHT22;5167;52.164;10.530;2023-02-11T05:18:43;7.90;64.20
10245;DHT22;5167;52.164;10.530;2023-02-11T05:21:14;7.90;64.70
10245;DHT22;5167;52.164;10.530;2023-02-11T05:23:41;7.90;66.10
10245;DHT22;5167;52.164;10.530;2023-02-11T05:26:07;7.90;66.60
10245;DHT22;5167;52.164;10.530;2023-02-11T05:28:33;7.90;67.40
10245;DHT22;5167;52.164;10.530;2023-02-11T05:31:00;7.90;67.90
10245;DHT22;5167;52.164;10.530;2023-02-11T05:33:26;7.80;69.40
10245;DHT22;5167;52.164;10.530;2023-02-11T05:35:56;7.80;73.20
10245;DHT22;5167;52.164;10.530;2023-02-11T05:38:22;7.80;77.50
10245;DHT22;5167;52.164;10.530;2023-02-11T05:40:47;7.80;79.10
10245;DHT22;5167;52.164;10.530;2023-02-11T05:43:13;7.80;82.50
10245;DHT22;5167;52.164;10.530;2023-02-11T05:45:39;7.80;84.90
10245;DHT22;5167;52.164;10.530;2023-02-11T05:48:04;7.80;87.10
10245;DHT22;5167;52.164;10.530;2023-02-11T05:50:30;7.80;87.20
10245;DHT22;5167;52.164;10.530;2023-02-11T05:52:55;7.80;85.70
10245;DHT22;5167;52.164;10.530;2023-02-11T05:55:21;7.80;86.70
10245;DHT22;5167;52.164;10.530;2023-02-11T05:57:46;7.90;86.50
10245;DHT22;5167;52.164;10.530;2023-02-11T06:00:13;7.80;86.40
10245;DHT22;5167;52.164;10.530;2023-02-11T06:02:40;7.80;86.60
10245;DHT22;5167;52.164;10.530;2023-02-11T06:05:06;7.90;86.70
10245;DHT22;5167;52.164;10.530;2023-02-11T06:07:31;7.90;85.10
10245;DHT22;5167;52.164;10.530;2023-02-11T06:09:57;7.90;83.90
10245;DHT22;5167;52.164;10.530;2023-02-11T06:12:23;7.90;83.70
10245;DHT22;5167;52.164;10.530;2023-02-11T06:14:49;7.90;83.40
10245;DHT22;5167;52.164;10.530;2023-02-11T06:17:15;7.90;83.70
10245;DHT22;5167;52.164;10.530;2023-02-11T06:19:40;7.80;83.20
10245;DHT22;5167;52.164;10.530;2023-02-11T06:22:09;7.90;83.00
10245;DHT22;5167;52.164;10.530;2023-02-11T06:24:35;7.90;81.80
10245;DHT22;5167;52.164;10.530;2023-02-11T06:27:02;7.90;81.50
10245;DHT22;5167;52.164;10.530;2023-02-11T06:29:28;7.90;79.50
10245;DHT22;5167;52.164;10.530;2023-02-11T06:31:54;8.00;79.10
10245;DHT22;5167;52.164;10.530;2023-02-11T06:34:19;7.90;79.40
10245;DHT22;5167;52.164;10.530;2023-02-11T06:36:45;8.00;79.60
10245;DHT22;5167;52.164;10.530;2023-02-11T06:39:11;7.90;78.70
10245;DHT22;5167;52.164;10.530;2023-02-11T06:41:37;8.00;78.00
10245;DHT22;5167;52.164;10.530;2023-02-11T06:44:03;8.00;78.70
10245;DHT22;5167;52.164;10.530;2023-02-11T06:46:29;8.00;77.70
10245;DHT22;5167;52.164;10.530;2023-02-11T06:48:54;8.00;76.60
10245;DHT22;5167;52.164;10.530;2023-02-11T06:51:20;7.90;78.20
10245;DHT22;5167;52.164;10.530;2023-02-11T06:53:46;7.90;78.60
10245;DHT22;5167;52.164;10.530;2023-02-11T06:56:17;7.90;78.10
10245;DHT22;5167;52.164;10.530;2023-02-11T06:58:43;8.00;78.40
10245;DHT22;5167;52.164;10.530;2023-02-11T07:01:12;8.00;77.80
10245;DHT22;5167;52.164;10.530;2023-02-11T07:03:39;8.00;78.20
10245;DHT22;5167;52.164;10.530;2023-02-11T07:06:06;8.00;77.40
10245;DHT22;5167;52.164;10.530;2023-02-11T07:08:33;8.10;77.90
10245;DHT22;5167;52.164;10.530;2023-02-11T07:10:59;8.10;76.80
10245;DHT22;5167;52.164;10.530;2023-02-11T07:13:25;8.20;76.20
10245;DHT22;5167;52.164;10.530;2023-02-11T07:15:51;8.20;74.70
10245;DHT22;5167;52.164;10.530;2023-02-11T07:18:16;8.20;74.20
10245;DHT22;5167;52.164;10.530;2023-02-11T07:20:42;8.20;73.10
10245;DHT22;5167;52.164;10.530;2023-02-11T07:23:08;8.20;73.30
10245;DHT22;5167;52.164;10.530;2023-02-11T07:25:34;8.30;71.80
10245;DHT22;5167;52.164;10.530;2023-02-11T07:28:00;8.20;70.50
10245;DHT22;5167;52.164;10.530;2023-02-11T07:30:26;8.20;70.20
10245;DHT22;5167;52.164;10.530;2023-02-11T07:32:52;8.20;70.10
10245;DHT22;5167;52.164;10.530;2023-02-11T07:35:18;8.30;70.30
10245;DHT22;5167;52.164;10.530;2023-02-11T07:37:43;8.30;69.80
10245;DHT22;5167;52.164;10.530;2023-02-11T07:40:09;8.30;69.40
10245;DHT22;5167;52.164;10.530;2023-02-11T07:42:35;8.30;69.80
10245;DHT22;5167;52.164;10.530;2023-02-11T07:45:01;8.30;69.20
10245;DHT22;5167;52.164;10.530;2023-02-11T07:47:27;8.30;68.40
10245;DHT22;5167;52.164;10.530;2023-02-11T07:49:52;8.30;67.80
10245;DHT22;5167;52.164;10.530;2023-02-11T07:52:18;8.20;66.90
10245;DHT22;5167;52.164;10.530;2023-02-11T07:54:44;8.30;66.90
10245;DHT22;5167;52.164;10.530;2023-02-11T07:57:10;8.30;66.90
10245;DHT22;5167;52.164;10.530;2023-02-11T07:59:35;8.40;67.20
10245;DHT22;5167;52.164;10.530;2023-02-11T08:02:01;8.30;66.50
10245;DHT22;5167;52.164;10.530;2023-02-11T08:04:27;8.30;66.50
10245;DHT22;5167;52.164;10.530;2023-02-11T08:06:52;8.30;66.60
10245;DHT22;5167;52.164;10.530;2023-02-11T08:09:21;8.30;66.40
10245;DHT22;5167;52.164;10.530;2023-02-11T08:11:47;8.30;66.10
10245;DHT22;5167;52.164;10.530;2023-02-11T08:14:12;8.40;66.40
10245;DHT22;5167;52.164;10.530;2023-02-11T08:16:38;8.30;66.40
10245;DHT22;5167;52.164;10.530;2023-02-11T08:19:07;8.50;67.20
10245;DHT22;5167;52.164;10.530;2023-02-11T08:21:33;8.30;66.70
10245;DHT22;5167;52.164;10.530;2023-02-11T08:24:00;8.30;66.60
10245;DHT22;5167;52.164;10.530;2023-02-11T08:26:28;8.40;67.10
10245;DHT22;5167;52.164;10.530;2023-02-11T08:28:55;8.40;66.90
10245;DHT22;5167;52.164;10.530;2023-02-11T08:31:23;8.40;67.00
10245;DHT22;5167;52.164;10.530;2023-02-11T08:33:49;8.50;66.40
10245;DHT22;5167;52.164;10.530;2023-02-11T08:36:21;8.60;66.40
10245;DHT22;5167;52.164;10.530;2023-02-11T08:38:48;8.60;65.60
10245;DHT22;5167;52.164;10.530;2023-02-11T08:41:14;8.60;65.20
10245;DHT22;5167;52.164;10.530;2023-02-11T08:43:41;8.60;65.40
10245;DHT22;5167;52.164;10.530;2023-02-11T08:46:08;8.60;65.40
10245;DHT22;5167;52.164;10.530;2023-02-11T08:48:34;8.60;64.70
10245;DHT22;5167;52.164;10.530;2023-02-11T08:50:59;8.70;65.00
10245;DHT22;5167;52.164;10.530;2023-02-11T08:53:29;8.60;65.20
10245;DHT22;5167;52.164;10.530;2023-02-11T08:55:55;8.60;65.00
10245;DHT22;5167;52.164;10.530;2023-02-11T08:58:21;8.60;66.10
10245;DHT22;5167;52.164;10.530;2023-02-11T09:00:48;8.60;65.40
10245;DHT22;5167;52.164;10.530;2023-02-11T09:03:14;8.60;65.90
10245;DHT22;5167;52.164;10.530;2023-02-11T09:05:44;8.60;66.50
10245;DHT22;5167;52.164;10.530;2023-02-11T09:08:10;8.60;66.30
10245;DHT22;5167;52.164;10.530;2023-02-11T09:10:36;8.60;65.90
10245;DHT22;5167;52.164;10.530;2023-02-11T09:13:02;8.70;66.20
10245;DHT22;5167;52.164;10.530;2023-02-11T09:15:28;8.70;66.60
10245;DHT22;5167;52.164;10.530;2023-02-11T09:17:54;8.70;65.70
10245;DHT22;5167;52.164;10.530;2023-02-11T09:20:19;8.80;65.70
10245;DHT22;5167;52.164;10.530;2023-02-11T09:22:46;8.80;65.00
10245;DHT22;5167;52.164;10.530;2023-02-11T09:25:12;8.90;64.50
10245;DHT22;5167;52.164;10.530;2023-02-11T09:27:37;8.90;64.30
10245;DHT22;5167;52.164;10.530;2023-02-11T09:30:03;8.90;63.40
10245;DHT22;5167;52.164;10.530;2023-02-11T09:32:29;8.80;63.20
10245;DHT22;5167;52.164;10.530;2023-02-11T09:34:54;8.90;62.70
10245;DHT22;5167;52.164;10.530;2023-02-11T09:37:20;8.90;62.90
10245;DHT22;5167;52.164;10.530;2023-02-11T09:39:46;8.80;63.00
10245;DHT22;5167;52.164;10.530;2023-02-11T09:44:38;8.80;63.90
10245;DHT22;5167;52.164;10.530;2023-02-11T09:47:14;8.80;63.70
10245;DHT22;5167;52.164;10.530;2023-02-11T09:49:48;8.80;63.50
10245;DHT22;5167;52.164;10.530;2023-02-11T09:52:31;8.80;63.30
10245;DHT22;5167;52.164;10.530;2023-02-11T09:54:59;8.90;63.90
10245;DHT22;5167;52.164;10.530;2023-02-11T09:57:32;8.90;62.60
10245;DHT22;5167;52.164;10.530;2023-02-11T09:59:58;8.90;63.00
10245;DHT22;5167;52.164;10.530;2023-02-11T10:05:41;8.90;63.10
10245;DHT22;5167;52.164;10.530;2023-02-11T10:08:14;8.90;62.80
10245;DHT22;5167;52.164;10.530;2023-02-11T10:10:51;9.00;63.20
10245;DHT22;5167;52.164;10.530;2023-02-11T10:13:35;8.90;64.20
10245;DHT22;5167;52.164;10.530;2023-02-11T10:16:14;8.90;63.90
10245;DHT22;5167;52.164;10.530;2023-02-11T10:24:13;9.10;64.30
10245;DHT22;5167;52.164;10.530;2023-02-11T10:26:40;9.10;63.20
10245;DHT22;5167;52.164;10.530;2023-02-11T10:29:25;9.10;63.70
10245;DHT22;5167;52.164;10.530;2023-02-11T10:31:52;9.20;62.90
10245;DHT22;5167;52.164;10.530;2023-02-11T10:34:18;9.30;62.60
10245;DHT22;5167;52.164;10.530;2023-02-11T10:36:44;9.30;61.30
10245;DHT22;5167;52.164;10.530;2023-02-11T10:39:15;9.40;61.00
10245;DHT22;5167;52.164;10.530;2023-02-11T10:42:04;9.40;58.90
10245;DHT22;5167;52.164;10.530;2023-02-11T10:44:34;9.30;60.20
10245;DHT22;5167;52.164;10.530;2023-02-11T10:47:19;9.40;59.90
10245;DHT22;5167;52.164;10.530;2023-02-11T10:49:46;9.30;60.00
10245;DHT22;5167;52.164;10.530;2023-02-11T10:52:24;9.30;60.50
10245;DHT22;5167;52.164;10.530;2023-02-11T10:55:14;9.40;60.40
10245;DHT22;5167;52.164;10.530;2023-02-11T10:57:51;9.40;59.80
10245;DHT22;5167;52.164;10.530;2023-02-11T11:02:53;9.40;60.30
10245;DHT22;5167;52.164;10.530;2023-02-11T11:05:27;9.40;59.90
10245;DHT22;5167;52.164;10.530;2023-02-11T11:07:59;9.40;59.30
10245;DHT22;5167;52.164;10.530;2023-02-11T11:10:40;9.40;59.20
10245;DHT22;5167;52.164;10.530;2023-02-11T11:13:28;9.40;58.90
10245;DHT22;5167;52.164;10.530;2023-02-11T11:18:32;9.50;59.30
10245;DHT22;5167;52.164;10.530;2023-02-11T11:20:59;9.40;58.50
10245;DHT22;5167;52.164;10.530;2023-02-11T11:23:25;9.50;59.00
10245;DHT22;5167;52.164;10.530;2023-02-11T11:26:10;9.70;58.00
10245;DHT22;5167;52.164;10.530;2023-02-11T11:31:17;9.50;57.30
10245;DHT22;5167;52.164;10.530;2023-02-11T11:33:44;9.50;57.30
10245;DHT22;5167;52.164;10.530;2023-02-11T11:36:14;9.50;58.50
10245;DHT22;5167;52.164;10.530;2023-02-11T11:38:57;9.50;59.40
10245;DHT22;5167;52.164;10.530;2023-02-11T11:41:28;9.60;60.00
10245;DHT22;5167;52.164;10.530;2023-02-11T11:46:50;9.60;59.80
10245;DHT22;5167;52.164;10.530;2023-02-11T11:52:45;9.70;59.10
10245;DHT22;5167;52.164;10.530;2023-02-11T11:58:19;9.80;58.00
10245;DHT22;5167;52.164;10.530;2023-02-11T12:04:27;9.80;57.80
10245;DHT22;5167;52.164;10.530;2023-02-11T12:07:20;9.80;57.30
10245;DHT22;5167;52.164;10.530;2023-02-11T12:10:22;9.80;57.40
10245;DHT22;5167;52.164;10.530;2023-02-11T12:16:11;9.90;58.10
10245;DHT22;5167;52.164;10.530;2023-02-11T12:19:15;10.00;57.70
10245;DHT22;5167;52.164;10.530;2023-02-11T12:22:25;10.00;55.40
10245;DHT22;5167;52.164;10.530;2023-02-11T12:25:00;10.00;56.70
10245;DHT22;5167;52.164;10.530;2023-02-11T12:35:57;10.00;55.70
10245;DHT22;5167;52.164;10.530;2023-02-11T12:38:40;10.00;56.80
10245;DHT22;5167;52.164;10.530;2023-02-11T12:48:09;10.00;56.10
10245;DHT22;5167;52.164;10.530;2023-02-11T12:51:04;10.00;56.50
10245;DHT22;5167;52.164;10.530;2023-02-11T13:02:58;10.10;56.50
10245;DHT22;5167;52.164;10.530;2023-02-11T13:05:48;10.20;56.20
10245;DHT22;5167;52.164;10.530;2023-02-11T13:08:29;10.20;56.50
10245;DHT22;5167;52.164;10.530;2023-02-11T13:13:59;10.20;55.50
10245;DHT22;5167;52.164;10.530;2023-02-11T13:16:34;10.20;55.80
10245;DHT22;5167;52.164;10.530;2023-02-11T13:22:04;10.20;55.40
10245;DHT22;5167;52.164;10.530;2023-02-11T13:25:18;10.20;55.80
10245;DHT22;5167;52.164;10.530;2023-02-11T13:43:24;10.20;55.70
10245;DHT22;5167;52.164;10.530;2023-02-11T13:46:03;10.20;56.30
10245;DHT22;5167;52.164;10.530;2023-02-11T13:48:46;10.00;55.30
10245;DHT22;5167;52.164;10.530;2023-02-11T13:51:16;10.20;55.40
10245;DHT22;5167;52.164;10.530;2023-02-11T13:53:49;10.10;55.60
10245;DHT22;5167;52.164;10.530;2023-02-11T13:56:42;10.10;56.20
10245;DHT22;5167;52.164;10.530;2023-02-11T14:02:19;10.00;56.70
10245;DHT22;5167;52.164;10.530;2023-02-11T14:08:11;10.10;56.20
10245;DHT22;5167;52.164;10.530;2023-02-11T14:19:43;10.20;56.20
10245;DHT22;5167;52.164;10.530;2023-02-11T14:22:14;10.20;55.10
10245;DHT22;5167;52.164;10.530;2023-02-11T14:27:34;10.20;55.90
10245;DHT22;5167;52.164;10.530;2023-02-11T14:41:55;10.30;56.20
10245;DHT22;5167;52.164;10.530;2023-02-11T14:44:24;10.20;56.30
10245;DHT22;5167;52.164;10.530;2023-02-11T14:46:53;10.20;56.50
10245;DHT22;5167;52.164;10.530;2023-02-11T14:49:37;10.20;56.40
10245;DHT22;5167;52.164;10.530;2023-02-11T14:52:26;10.20;57.20
10245;DHT22;5167;52.164;10.530;2023-02-11T14:57:45;10.20;58.10
10245;DHT22;5167;52.164;10.530;2023-02-11T15:00:20;10.20;58.60
10245;DHT22;5167;52.164;10.530;2023-02-11T15:02:46;10.20;57.90
10245;DHT22;5167;52.164;10.530;2023-02-11T15:05:19;10.20;58.70
10245;DHT22;5167;52.164;10.530;2023-02-11T15:08:03;10.20;57.10
10245;DHT22;5167;52.164;10.530;2023-02-11T15:10:40;10.30;57.20
10245;DHT22;5167;52.164;10.530;2023-02-11T15:13:08;10.20;56.80
10245;DHT22;5167;52.164;10.530;2023-02-11T15:15:40;10.30;58.00
10245;DHT22;5167;52.164;10.530;2023-02-11T15:18:06;10.30;58.20
10245;DHT22;5167;52.164;10.530;2023-02-11T15:20:40;10.30;58.40
10245;DHT22;5167;52.164;10.530;2023-02-11T15:23:07;10.30;58.10
10245;DHT22;5167;52.164;10.530;2023-02-11T15:25:45;10.20;58.60
10245;DHT22;5167;52.164;10.530;2023-02-11T15:28:24;10.30;57.90
10245;DHT22;5167;52.164;10.530;2023-02-11T15:30:58;10.20;58.20
10245;DHT22;5167;52.164;10.530;2023-02-11T15:33:27;10.30;57.90
10245;DHT22;5167;52.164;10.530;2023-02-11T15:35:57;10.30;57.80
10245;DHT22;5167;52.164;10.530;2023-02-11T15:38:24;10.20;57.70
10245;DHT22;5167;52.164;10.530;2023-02-11T15:40:56;10.30;58.00
10245;DHT22;5167;52.164;10.530;2023-02-11T15:43:23;10.30;57.30
10245;DHT22;5167;52.164;10.530;2023-02-11T15:45:55;10.30;57.30
10245;DHT22;5167;52.164;10.530;2023-02-11T15:51:35;10.30;56.80
10245;DHT22;5167;52.164;10.530;2023-02-11T15:54:14;10.20;57.40
10245;DHT22;5167;52.164;10.530;2023-02-11T15:56:42;10.20;57.20
10245;DHT22;5167;52.164;10.530;2023-02-11T15:59:26;10.20;57.10
10245;DHT22;5167;52.164;10.530;2023-02-11T16:01:53;10.30;57.20
10245;DHT22;5167;52.164;10.530;2023-02-11T16:04:26;10.40;57.10
10245;DHT22;5167;52.164;10.530;2023-02-11T16:06:53;10.30;57.40
10245;DHT22;5167;52.164;10.530;2023-02-11T16:09:24;10.30;57.20
10245;DHT22;5167;52.164;10.530;2023-02-11T16:16:59;10.30;56.00
10245;DHT22;5167;52.164;10.530;2023-02-11T16:19:27;10.30;56.20
10245;DHT22;5167;52.164;10.530;2023-02-11T16:21:57;10.30;56.00
10245;DHT22;5167;52.164;10.530;2023-02-11T16:24:28;10.30;55.90
10245;DHT22;5167;52.164;10.530;2023-02-11T16:27:22;10.40;56.10
10245;DHT22;5167;52.164;10.530;2023-02-11T16:29:49;10.30;56.00
10245;DHT22;5167;52.164;10.530;2023-02-11T16:32:21;10.40;55.90
10245;DHT22;5167;52.164;10.530;2023-02-11T16:34:48;10.40;57.00
10245;DHT22;5167;52.164;10.530;2023-02-11T16:39:54;10.20;56.20
10245;DHT22;5167;52.164;10.530;2023-02-11T16:42:20;10.30;56.80
10245;DHT22;5167;52.164;10.530;2023-02-11T16:44:45;10.30;56.90
10245;DHT22;5167;52.164;10.530;2023-02-11T16:50:50;10.40;56.90
10245;DHT22;5167;52.164;10.530;2023-02-11T16:53:18;10.30;57.40
10245;DHT22;5167;52.164;10.530;2023-02-11T16:55:45;10.20;58.30
10245;DHT22;5167;52.164;10.530;2023-02-11T16:58:11;10.30;58.60
10245;DHT22;5167;52.164;10.530;2023-02-11T17:00:40;10.30;57.50
10245;DHT22;5167;52.164;10.530;2023-02-11T17:03:14;10.30;57.50
10245;DHT22;5167;52.164;10.530;2023-02-11T17:05:41;10.40;58.20
10245;DHT22;5167;52.164;10.530;2023-02-11T17:08:09;10.40;57.80
10245;DHT22;5167;52.164;10.530;2023-02-11T17:10:38;10.30;58.20
10245;DHT22;5167;52.164;10.530;2023-02-11T17:13:04;10.30;58.50
10245;DHT22;5167;52.164;10.530;2023-02-11T17:15:33;10.30;58.70
10245;DHT22;5167;52.164;10.530;2023-02-11T17:18:14;10.20;58.70
10245;DHT22;5167;52.164;10.530;2023-02-11T17:20:40;10.30;59.10
10245;DHT22;5167;52.164;10.530;2023-02-11T17:23:06;10.40;59.40
10245;DHT22;5167;52.164;10.530;2023-02-11T17:25:34;10.30;59.50
10245;DHT22;5167;52.164;10.530;2023-02-11T17:28:03;10.30;59.00
10245;DHT22;5167;52.164;10.530;2023-02-11T17:30:28;10.30;60.70
10245;DHT22;5167;52.164;10.530;2023-02-11T17:32:54;10.30;60.40
10245;DHT22;5167;52.164;10.530;2023-02-11T17:35:20;10.30;61.30
10245;DHT22;5167;52.164;10.530;2023-02-11T17:37:46;10.30;60.00
10245;DHT22;5167;52.164;10.530;2023-02-11T17:40:12;10.30;60.30
10245;DHT22;5167;52.164;10.530;2023-02-11T17:42:38;10.30;61.10
10245;DHT22;5167;52.164;10.530;2023-02-11T17:45:04;10.20;62.30
10245;DHT22;5167;52.164;10.530;2023-02-11T17:47:35;10.30;62.60
10245;DHT22;5167;52.164;10.530;2023-02-11T17:50:05;10.30;64.90
10245;DHT22;5167;52.164;10.530;2023-02-11T17:52:30;10.20;66.00
10245;DHT22;5167;52.164;10.530;2023-02-11T17:54:56;10.30;66.20
10245;DHT22;5167;52.164;10.530;2023-02-11T17:57:22;10.40;66.70
10245;DHT22;5167;52.164;10.530;2023-02-11T17:59:48;10.30;67.40
10245;DHT22;5167;52.164;10.530;2023-02-11T18:02:13;10.30;67.80
10245;DHT22;5167;52.164;10.530;2023-02-11T18:04:39;10.30;67.10
10245;DHT22;5167;52.164;10.530;2023-02-11T18:07:08;10.30;67.90
10245;DHT22;5167;52.164;10.530;2023-02-11T18:09:38;10.30;67.80
10245;DHT22;5167;52.164;10.530;2023-02-11T18:12:04;10.30;68.20
10245;DHT22;5167;52.164;10.530;2023-02-11T18:14:31;10.30;70.00
10245;DHT22;5167;52.164;10.530;2023-02-11T18:16:56;10.30;70.70
10245;DHT22;5167;52.164;10.530;2023-02-11T18:19:22;10.40;71.10
10245;DHT22;5167;52.164;10.530;2023-02-11T18:21:47;10.30;69.90
10245;DHT22;5167;52.164;10.530;2023-02-11T18:24:15;10.30;70.30
10245;DHT22;5167;52.164;10.530;2023-02-11T18:26:41;10.30;70.70
10245;DHT22;5167;52.164;10.530;2023-02-11T18:29:07;10.30;71.60
10245;DHT22;5167;52.164;10.530;2023-02-11T18:31:33;10.30;71.50
10245;DHT22;5167;52.164;10.530;2023-02-11T18:34:03;10.30;72.30
10245;DHT22;5167;52.164;10.530;2023-02-11T18:36:30;10.30;71.30
10245;DHT22;5167;52.164;10.530;2023-02-11T18:38:55;10.30;71.20